sensor_id;sensor_type;location;lat;lon;timestamp;temperature;humidity
3488;DHT22;38546;48.170;11.724;2022-12-18T00:02:05;-5.30;99.90
3488;DHT22;38546;48.170;11.724;2022-12-18T00:04:56;-5.30;99.90
3488;DHT22;38546;48.170;11.724;2022-12-18T00:07:46;-5.40;99.90
3488;DHT22;38546;48.170;11.724;2022-12-18T00:10:36;-5.30;99.90
3488;DHT22;38546;48.170;11.724;2022-12-18T00:13:27;-5.20;99.90
3488;DHT22;38546;48.170;11.724;2022-12-18T00:16:19;-5.30;99.90
3488;DHT22;38546;48.170;11.724;2022-12-18T00:19:10;-5.30;99.90
3488;DHT22;38546;48.170;11.724;2022-12-18T00:21:59;-5.40;99.90
3488;DHT22;38546;48.170;11.724;2022-12-18T00:24:48;-5.30;99.90
3488;DHT22;38546;48.170;11.724;2022-12-18T00:27:37;-5.30;99.90
3488;DHT22;38546;48.170;11.724;2022-12-18T00:30:26;-5.40;99.90
3488;DHT22;38546;48.170;11.724;2022-12-18T00:33:17;-5.40;99.90
3488;DHT22;38546;48.170;11.724;2022-12-18T00:36:10;-5.40;99.90
3488;DHT22;38546;48.170;11.724;2022-12-18T00:39:03;-5.40;99.90
3488;DHT22;38546;48.170;11.724;2022-12-18T00:41:53;-5.30;99.90
3488;DHT22;38546;48.170;11.724;2022-12-18T00:45:01;-5.30;99.90
3488;DHT22;38546;48.170;11.724;2022-12-18T00:47:51;-5.30;99.90
3488;DHT22;38546;48.170;11.724;2022-12-18T00:50:43;-5.30;99.90
3488;DHT22;38546;48.170;11.724;2022-12-18T00:53:33;-5.30;99.90
3488;DHT22;38546;48.170;11.724;2022-12-18T00:56:23;-5.20;99.90
3488;DHT22;38546;48.170;11.724;2022-12-18T00:59:13;-5.20;99.90
3488;DHT22;38546;48.170;11.724;2022-12-18T01:02:02;-5.20;99.90
3488;DHT22;38546;48.170;11.724;2022-12-18T01:04:51;-5.10;99.90
3488;DHT22;38546;48.170;11.724;2022-12-18T01:07:41;-5.10;99.90
3488;DHT22;38546;48.170;11.724;2022-12-18T01:10:30;-5.10;99.90
3488;DHT22;38546;48.170;11.724;2022-12-18T01:13:20;-5.10;99.90
3488;DHT22;38546;48.170;11.724;2022-12-18T01:16:14;-5.10;99.90
3488;DHT22;38546;48.170;11.724;2022-12-18T01:19:05;-5.10;99.90
3488;DHT22;38546;48.170;11.724;2022-12-18T01:21:55;-5.00;99.90
3488;DHT22;38546;48.170;11.724;2022-12-18T01:24:44;-5.00;99.90
3488;DHT22;38546;48.170;11.724;2022-12-18T01:27:34;-5.00;99.90
3488;DHT22;38546;48.170;11.724;2022-12-18T01:30:24;-4.90;99.90
3488;DHT22;38546;48.170;11.724;2022-12-18T01:33:13;-4.80;99.90
3488;DHT22;38546;48.170;11.724;2022-12-18T01:36:03;-4.80;99.90
3488;DHT22;38546;48.170;11.724;2022-12-18T01:38:54;-4.70;99.90
3488;DHT22;38546;48.170;11.724;2022-12-18T01:41:45;-4.80;99.90
3488;DHT22;38546;48.170;11.724;2022-12-18T01:45:03;-4.80;99.90
3488;DHT22;38546;48.170;11.724;2022-12-18T01:48:03;-4.70;99.90
3488;DHT22;38546;48.170;11.724;2022-12-18T01:50:55;-4.70;99.90
3488;DHT22;38546;48.170;11.724;2022-12-18T01:53:46;-4.80;99.90
3488;DHT22;38546;48.170;11.724;2022-12-18T01:56:38;-4.80;99.90
3488;DHT22;38546;48.170;11.724;2022-12-18T01:59:27;-4.80;99.90
3488;DHT22;38546;48.170;11.724;2022-12-18T02:02:19;-4.90;99.90
3488;DHT22;38546;48.170;11.724;2022-12-18T02:05:10;-4.80;99.90
3488;DHT22;38546;48.170;11.724;2022-12-18T02:15:14;-4.80;99.90
3488;DHT22;38546;48.170;11.724;2022-12-18T02:18:12;-4.80;99.90
3488;DHT22;38546;48.170;11.724;2022-12-18T02:24:45;-4.80;99.90
3488;DHT22;38546;48.170;11.724;2022-12-18T02:28:20;-4.80;99.90
3488;DHT22;38546;48.170;11.724;2022-12-18T02:31:18;-4.80;99.90
3488;DHT22;38546;48.170;11.724;2022-12-18T02:34:12;-4.70;99.90
3488;DHT22;38546;48.170;11.724;2022-12-18T02:37:05;-4.70;99.90
3488;DHT22;38546;48.170;11.724;2022-12-18T02:39:58;-4.60;99.90
3488;DHT22;38546;48.170;11.724;2022-12-18T02:42:48;-4.60;99.90
3488;DHT22;38546;48.170;11.724;2022-12-18T02:48:16;-4.60;99.90
3488;DHT22;38546;48.170;11.724;2022-12-18T02:51:24;-4.70;99.90
3488;DHT22;38546;48.170;11.724;2022-12-18T02:54:39;-4.70;99.90
3488;DHT22;38546;48.170;11.724;2022-12-18T03:01:23;-4.70;99.90
3488;DHT22;38546;48.170;11.724;2022-12-18T03:04:26;-4.80;99.90
3488;DHT22;38546;48.170;11.724;2022-12-18T03:07:24;-4.80;99.90
3488;DHT22;38546;48.170;11.724;2022-12-18T03:10:31;-4.70;99.90
3488;DHT22;38546;48.170;11.724;2022-12-18T03:13:48;-4.80;99.90
3488;DHT22;38546;48.170;11.724;2022-12-18T03:16:41;-4.70;99.90
3488;DHT22;38546;48.170;11.724;2022-12-18T03:19:32;-4.70;99.90
3488;DHT22;38546;48.170;11.724;2022-12-18T03:22:24;-4.70;99.90
3488;DHT22;38546;48.170;11.724;2022-12-18T03:25:17;-4.60;99.90
3488;DHT22;38546;48.170;11.724;2022-12-18T03:28:12;-4.60;99.90
3488;DHT22;38546;48.170;11.724;2022-12-18T03:31:05;-4.50;99.90
3488;DHT22;38546;48.170;11.724;2022-12-18T03:33:59;-4.50;99.90
3488;DHT22;38546;48.170;11.724;2022-12-18T03:36:51;-4.50;99.90
3488;DHT22;38546;48.170;11.724;2022-12-18T03:39:41;-4.50;99.90
3488;DHT22;38546;48.170;11.724;2022-12-18T03:42:49;-4.40;99.90
3488;DHT22;38546;48.170;11.724;2022-12-18T03:45:53;-4.50;99.90
3488;DHT22;38546;48.170;11.724;2022-12-18T03:48:48;-4.50;99.90
3488;DHT22;38546;48.170;11.724;2022-12-18T03:51:53;-4.50;99.90
3488;DHT22;38546;48.170;11.724;2022-12-18T03:54:46;-4.50;99.90
3488;DHT22;38546;48.170;11.724;2022-12-18T03:57:36;-4.40;99.90
3488;DHT22;38546;48.170;11.724;2022-12-18T04:00:28;-4.50;99.90
3488;DHT22;38546;48.170;11.724;2022-12-18T04:03:20;-4.50;99.90
3488;DHT22;38546;48.170;11.724;2022-12-18T04:06:11;-4.50;99.90
3488;DHT22;38546;48.170;11.724;2022-12-18T04:09:01;-4.50;99.90
3488;DHT22;38546;48.170;11.724;2022-12-18T04:11:51;-4.60;99.90
3488;DHT22;38546;48.170;11.724;2022-12-18T04:14:41;-4.60;99.90
3488;DHT22;38546;48.170;11.724;2022-12-18T04:17:30;-4.60;99.90
3488;DHT22;38546;48.170;11.724;2022-12-18T04:20:20;-4.50;99.90
3488;DHT22;38546;48.170;11.724;2022-12-18T04:23:09;-4.60;99.90
3488;DHT22;38546;48.170;11.724;2022-12-18T04:25:59;-4.60;99.90
3488;DHT22;38546;48.170;11.724;2022-12-18T04:28:48;-4.50;99.90
3488;DHT22;38546;48.170;11.724;2022-12-18T04:31:39;-4.50;99.90
3488;DHT22;38546;48.170;11.724;2022-12-18T04:34:28;-4.50;99.90
3488;DHT22;38546;48.170;11.724;2022-12-18T04:37:17;-4.50;99.90
3488;DHT22;38546;48.170;11.724;2022-12-18T04:40:09;-4.40;99.90
3488;DHT22;38546;48.170;11.724;2022-12-18T04:42:58;-4.40;99.90
3488;DHT22;38546;48.170;11.724;2022-12-18T04:45:47;-4.40;99.90
3488;DHT22;38546;48.170;11.724;2022-12-18T04:48:37;-4.50;99.90
3488;DHT22;38546;48.170;11.724;2022-12-18T04:51:26;-4.60;99.90
3488;DHT22;38546;48.170;11.724;2022-12-18T04:54:15;-4.50;99.90
3488;DHT22;38546;48.170;11.724;2022-12-18T04:57:05;-4.50;99.90
3488;DHT22;38546;48.170;11.724;2022-12-18T04:59:54;-4.50;99.90
3488;DHT22;38546;48.170;11.724;2022-12-18T05:02:43;-4.60;99.90
3488;DHT22;38546;48.170;11.724;2022-12-18T05:05:35;-4.60;99.90
3488;DHT22;38546;48.170;11.724;2022-12-18T05:08:24;-4.70;99.90
3488;DHT22;38546;48.170;11.724;2022-12-18T05:11:15;-4.70;99.90
3488;DHT22;38546;48.170;11.724;2022-12-18T05:14:04;-4.60;99.90
3488;DHT22;38546;48.170;11.724;2022-12-18T05:16:54;-4.60;99.90
3488;DHT22;38546;48.170;11.724;2022-12-18T05:19:44;-4.60;99.90
3488;DHT22;38546;48.170;11.724;2022-12-18T05:22:34;-4.50;99.90
3488;DHT22;38546;48.170;11.724;2022-12-18T05:25:23;-4.50;99.90
3488;DHT22;38546;48.170;11.724;2022-12-18T05:28:13;-4.50;99.90
3488;DHT22;38546;48.170;11.724;2022-12-18T05:31:03;-4.50;99.90
3488;DHT22;38546;48.170;11.724;2022-12-18T05:33:52;-4.50;99.90
3488;DHT22;38546;48.170;11.724;2022-12-18T05:36:41;-4.50;99.90
3488;DHT22;38546;48.170;11.724;2022-12-18T05:39:31;-4.50;99.90
3488;DHT22;38546;48.170;11.724;2022-12-18T05:42:20;-4.40;99.90
3488;DHT22;38546;48.170;11.724;2022-12-18T05:45:09;-4.50;99.90
3488;DHT22;38546;48.170;11.724;2022-12-18T05:47:58;-4.50;99.90
3488;DHT22;38546;48.170;11.724;2022-12-18T05:50:49;-4.50;99.90
3488;DHT22;38546;48.170;11.724;2022-12-18T05:53:38;-4.50;99.90
3488;DHT22;38546;48.170;11.724;2022-12-18T05:56:27;-4.50;99.90
3488;DHT22;38546;48.170;11.724;2022-12-18T05:59:16;-4.40;99.90
3488;DHT22;38546;48.170;11.724;2022-12-18T06:02:05;-4.40;99.90
3488;DHT22;38546;48.170;11.724;2022-12-18T06:04:54;-4.40;99.90
3488;DHT22;38546;48.170;11.724;2022-12-18T06:07:43;-4.40;99.90
3488;DHT22;38546;48.170;11.724;2022-12-18T06:10:33;-4.40;99.90
3488;DHT22;38546;48.170;11.724;2022-12-18T06:13:22;-4.40;99.90
3488;DHT22;38546;48.170;11.724;2022-12-18T06:16:11;-4.40;99.90
3488;DHT22;38546;48.170;11.724;2022-12-18T06:19:03;-4.50;99.90
3488;DHT22;38546;48.170;11.724;2022-12-18T06:21:53;-4.50;99.90
3488;DHT22;38546;48.170;11.724;2022-12-18T06:24:43;-4.50;99.90
3488;DHT22;38546;48.170;11.724;2022-12-18T06:27:32;-4.40;99.90
3488;DHT22;38546;48.170;11.724;2022-12-18T06:30:25;-4.40;99.90
3488;DHT22;38546;48.170;11.724;2022-12-18T06:33:15;-4.50;99.90
3488;DHT22;38546;48.170;11.724;2022-12-18T06:36:11;-4.50;99.90
3488;DHT22;38546;48.170;11.724;2022-12-18T06:39:01;-4.50;99.90
3488;DHT22;38546;48.170;11.724;2022-12-18T06:41:50;-4.60;99.90
3488;DHT22;38546;48.170;11.724;2022-12-18T06:44:38;-4.70;99.90
3488;DHT22;38546;48.170;11.724;2022-12-18T06:47:28;-4.60;99.90
3488;DHT22;38546;48.170;11.724;2022-12-18T06:50:17;-4.50;99.90
3488;DHT22;38546;48.170;11.724;2022-12-18T06:53:06;-4.50;99.90
3488;DHT22;38546;48.170;11.724;2022-12-18T06:56:07;-4.50;99.90
3488;DHT22;38546;48.170;11.724;2022-12-18T06:58:56;-4.50;99.90
3488;DHT22;38546;48.170;11.724;2022-12-18T07:01:45;-4.60;99.90
3488;DHT22;38546;48.170;11.724;2022-12-18T07:04:35;-4.70;99.90
3488;DHT22;38546;48.170;11.724;2022-12-18T07:07:24;-4.60;99.90
3488;DHT22;38546;48.170;11.724;2022-12-18T07:10:14;-4.60;99.90
3488;DHT22;38546;48.170;11.724;2022-12-18T07:13:03;-4.70;99.90
3488;DHT22;38546;48.170;11.724;2022-12-18T07:15:52;-4.70;99.90
3488;DHT22;38546;48.170;11.724;2022-12-18T07:18:41;-4.70;99.90
3488;DHT22;38546;48.170;11.724;2022-12-18T07:21:30;-4.60;99.90
3488;DHT22;38546;48.170;11.724;2022-12-18T07:24:19;-4.60;99.90
3488;DHT22;38546;48.170;11.724;2022-12-18T07:27:08;-4.60;99.90
3488;DHT22;38546;48.170;11.724;2022-12-18T07:29:58;-4.60;99.90
3488;DHT22;38546;48.170;11.724;2022-12-18T07:32:47;-4.60;99.90
3488;DHT22;38546;48.170;11.724;2022-12-18T07:35:37;-4.50;99.90
3488;DHT22;38546;48.170;11.724;2022-12-18T07:38:27;-4.60;99.90
3488;DHT22;38546;48.170;11.724;2022-12-18T07:41:16;-4.60;99.90
3488;DHT22;38546;48.170;11.724;2022-12-18T07:44:05;-4.60;99.90
3488;DHT22;38546;48.170;11.724;2022-12-18T07:46:54;-4.60;99.90
3488;DHT22;38546;48.170;11.724;2022-12-18T07:49:44;-4.60;99.90
3488;DHT22;38546;48.170;11.724;2022-12-18T07:52:33;-4.50;99.90
3488;DHT22;38546;48.170;11.724;2022-12-18T07:55:21;-4.60;99.90
3488;DHT22;38546;48.170;11.724;2022-12-18T07:58:10;-4.60;99.90
3488;DHT22;38546;48.170;11.724;2022-12-18T08:01:04;-4.50;99.90
3488;DHT22;38546;48.170;11.724;2022-12-18T08:03:54;-4.40;99.90
3488;DHT22;38546;48.170;11.724;2022-12-18T08:06:44;-4.50;99.90
3488;DHT22;38546;48.170;11.724;2022-12-18T08:09:32;-4.40;99.90
3488;DHT22;38546;48.170;11.724;2022-12-18T08:12:22;-4.40;99.90
3488;DHT22;38546;48.170;11.724;2022-12-18T08:15:12;-4.50;99.90
3488;DHT22;38546;48.170;11.724;2022-12-18T08:18:01;-4.40;99.90
3488;DHT22;38546;48.170;11.724;2022-12-18T08:20:51;-4.40;99.90
3488;DHT22;38546;48.170;11.724;2022-12-18T08:23:40;-4.30;99.90
3488;DHT22;38546;48.170;11.724;2022-12-18T08:26:30;-4.30;99.90
3488;DHT22;38546;48.170;11.724;2022-12-18T08:29:20;-4.20;99.90
3488;DHT22;38546;48.170;11.724;2022-12-18T08:32:10;-4.10;99.90
3488;DHT22;38546;48.170;11.724;2022-12-18T08:34:59;-4.10;99.90
3488;DHT22;38546;48.170;11.724;2022-12-18T08:37:48;-4.00;99.90
3488;DHT22;38546;48.170;11.724;2022-12-18T08:40:37;-4.00;99.90
3488;DHT22;38546;48.170;11.724;2022-12-18T08:43:26;-3.90;99.90
3488;DHT22;38546;48.170;11.724;2022-12-18T08:46:37;-3.80;99.90
3488;DHT22;38546;48.170;11.724;2022-12-18T08:49:27;-3.70;99.90
3488;DHT22;38546;48.170;11.724;2022-12-18T08:52:17;-3.80;99.90
3488;DHT22;38546;48.170;11.724;2022-12-18T08:55:07;-3.80;99.90
3488;DHT22;38546;48.170;11.724;2022-12-18T08:57:58;-3.70;99.90
3488;DHT22;38546;48.170;11.724;2022-12-18T09:00:48;-3.70;99.90
3488;DHT22;38546;48.170;11.724;2022-12-18T09:03:37;-3.70;99.90
3488;DHT22;38546;48.170;11.724;2022-12-18T09:06:27;-3.70;99.90
3488;DHT22;38546;48.170;11.724;2022-12-18T09:09:16;-3.60;99.90
3488;DHT22;38546;48.170;11.724;2022-12-18T09:12:06;-3.70;99.90
3488;DHT22;38546;48.170;11.724;2022-12-18T09:14:56;-3.60;99.90
3488;DHT22;38546;48.170;11.724;2022-12-18T09:17:46;-3.60;99.90
3488;DHT22;38546;48.170;11.724;2022-12-18T09:20:36;-3.50;99.90
3488;DHT22;38546;48.170;11.724;2022-12-18T09:23:26;-3.50;99.90
3488;DHT22;38546;48.170;11.724;2022-12-18T09:26:15;-3.50;99.90
3488;DHT22;38546;48.170;11.724;2022-12-18T09:29:05;-3.50;99.90
3488;DHT22;38546;48.170;11.724;2022-12-18T09:31:58;-3.50;99.90
3488;DHT22;38546;48.170;11.724;2022-12-18T09:34:48;-3.70;99.90
3488;DHT22;38546;48.170;11.724;2022-12-18T09:37:37;-3.80;99.90
3488;DHT22;38546;48.170;11.724;2022-12-18T09:40:43;-3.70;99.90
3488;DHT22;38546;48.170;11.724;2022-12-18T09:43:40;-3.70;99.90
3488;DHT22;38546;48.170;11.724;2022-12-18T09:46:40;-3.70;99.90
3488;DHT22;38546;48.170;11.724;2022-12-18T09:49:38;-3.60;99.90
3488;DHT22;38546;48.170;11.724;2022-12-18T09:52:39;-3.60;99.90
3488;DHT22;38546;48.170;11.724;2022-12-18T09:55:51;-3.50;99.90
3488;DHT22;38546;48.170;11.724;2022-12-18T09:59:00;-3.40;99.90
3488;DHT22;38546;48.170;11.724;2022-12-18T10:01:50;-3.40;99.90
3488;DHT22;38546;48.170;11.724;2022-12-18T10:04:41;-3.60;99.90
3488;DHT22;38546;48.170;11.724;2022-12-18T10:08:16;-3.50;99.90
3488;DHT22;38546;48.170;11.724;2022-12-18T10:11:27;-3.40;99.90
3488;DHT22;38546;48.170;11.724;2022-12-18T10:14:34;-3.40;99.90
3488;DHT22;38546;48.170;11.724;2022-12-18T10:17:58;-3.30;99.90
3488;DHT22;38546;48.170;11.724;2022-12-18T10:21:15;-3.30;99.90
3488;DHT22;38546;48.170;11.724;2022-12-18T10:26:04;-3.10;99.90
3488;DHT22;38546;48.170;11.724;2022-12-18T10:28:57;-3.00;99.90
3488;DHT22;38546;48.170;11.724;2022-12-18T10:31:47;-3.00;99.90
3488;DHT22;38546;48.170;11.724;2022-12-18T10:34:37;-2.80;99.90
3488;DHT22;38546;48.170;11.724;2022-12-18T10:37:29;-2.80;99.90
3488;DHT22;38546;48.170;11.724;2022-12-18T10:40:18;-2.80;99.90
3488;DHT22;38546;48.170;11.724;2022-12-18T10:43:13;-2.70;99.90
3488;DHT22;38546;48.170;11.724;2022-12-18T10:46:22;-2.80;99.90
3488;DHT22;38546;48.170;11.724;2022-12-18T10:49:49;-2.60;99.90
3488;DHT22;38546;48.170;11.724;2022-12-18T10:52:40;-2.60;99.90
3488;DHT22;38546;48.170;11.724;2022-12-18T10:55:37;-2.70;99.90
3488;DHT22;38546;48.170;11.724;2022-12-18T10:58:33;-2.70;99.90
3488;DHT22;38546;48.170;11.724;2022-12-18T11:01:27;-2.70;99.90
3488;DHT22;38546;48.170;11.724;2022-12-18T11:04:23;-2.80;99.90
3488;DHT22;38546;48.170;11.724;2022-12-18T11:07:14;-2.80;99.90
3488;DHT22;38546;48.170;11.724;2022-12-18T11:10:04;-2.80;99.90
3488;DHT22;38546;48.170;11.724;2022-12-18T11:12:54;-2.70;99.90
3488;DHT22;38546;48.170;11.724;2022-12-18T11:15:44;-2.70;99.90
3488;DHT22;38546;48.170;11.724;2022-12-18T11:18:36;-2.70;99.90
3488;DHT22;38546;48.170;11.724;2022-12-18T11:21:25;-2.70;99.90
3488;DHT22;38546;48.170;11.724;2022-12-18T11:24:35;-2.80;99.90
3488;DHT22;38546;48.170;11.724;2022-12-18T11:27:26;-2.90;99.90
3488;DHT22;38546;48.170;11.724;2022-12-18T11:30:27;-2.80;99.90
3488;DHT22;38546;48.170;11.724;2022-12-18T11:33:21;-2.70;99.90
3488;DHT22;38546;48.170;11.724;2022-12-18T11:36:11;-2.60;99.90
3488;DHT22;38546;48.170;11.724;2022-12-18T11:39:10;-2.50;99.90
3488;DHT22;38546;48.170;11.724;2022-12-18T11:42:18;-2.50;99.90
3488;DHT22;38546;48.170;11.724;2022-12-18T11:45:35;-2.40;99.90
3488;DHT22;38546;48.170;11.724;2022-12-18T11:52:01;-2.40;99.90
3488;DHT22;38546;48.170;11.724;2022-12-18T11:54:58;-2.40;99.90
3488;DHT22;38546;48.170;11.724;2022-12-18T12:16:19;-2.10;99.90
3488;DHT22;38546;48.170;11.724;2022-12-18T12:19:39;-2.20;99.90
3488;DHT22;38546;48.170;11.724;2022-12-18T12:32:05;-2.70;99.90
3488;DHT22;38546;48.170;11.724;2022-12-18T12:38:37;-2.60;99.90
3488;DHT22;38546;48.170;11.724;2022-12-18T12:41:32;-2.70;99.90
3488;DHT22;38546;48.170;11.724;2022-12-18T12:44:53;-2.60;99.90
3488;DHT22;38546;48.170;11.724;2022-12-18T12:47:46;-2.60;99.90
3488;DHT22;38546;48.170;11.724;2022-12-18T12:50:38;-2.70;99.90
3488;DHT22;38546;48.170;11.724;2022-12-18T12:53:32;-2.70;99.90
3488;DHT22;38546;48.170;11.724;2022-12-18T12:56:29;-2.70;99.90
3488;DHT22;38546;48.170;11.724;2022-12-18T13:00:13;-2.70;99.90
3488;DHT22;38546;48.170;11.724;2022-12-18T13:03:27;-2.70;99.90
3488;DHT22;38546;48.170;11.724;2022-12-18T13:07:32;-2.80;99.90
3488;DHT22;38546;48.170;11.724;2022-12-18T13:10:35;-2.70;99.90
3488;DHT22;38546;48.170;11.724;2022-12-18T13:13:51;-2.60;99.90
3488;DHT22;38546;48.170;11.724;2022-12-18T13:16:42;-2.60;99.90
3488;DHT22;38546;48.170;11.724;2022-12-18T13:19:32;-2.60;99.90
3488;DHT22;38546;48.170;11.724;2022-12-18T13:22:33;-2.40;99.90
3488;DHT22;38546;48.170;11.724;2022-12-18T13:25:34;-2.40;99.90
3488;DHT22;38546;48.170;11.724;2022-12-18T13:29:44;-2.40;99.90
3488;DHT22;38546;48.170;11.724;2022-12-18T13:32:34;-2.40;99.90
3488;DHT22;38546;48.170;11.724;2022-12-18T13:36:13;-2.40;99.90
3488;DHT22;38546;48.170;11.724;2022-12-18T13:39:24;-2.40;99.90
3488;DHT22;38546;48.170;11.724;2022-12-18T13:42:38;-2.50;99.90
3488;DHT22;38546;48.170;11.724;2022-12-18T13:46:01;-2.50;99.90
3488;DHT22;38546;48.170;11.724;2022-12-18T13:49:51;-2.50;99.90
3488;DHT22;38546;48.170;11.724;2022-12-18T13:52:43;-2.60;99.90
3488;DHT22;38546;48.170;11.724;2022-12-18T13:55:32;-2.70;99.90
3488;DHT22;38546;48.170;11.724;2022-12-18T13:58:22;-2.70;99.90
3488;DHT22;38546;48.170;11.724;2022-12-18T14:01:22;-2.70;99.90
3488;DHT22;38546;48.170;11.724;2022-12-18T14:07:26;-2.90;99.90
3488;DHT22;38546;48.170;11.724;2022-12-18T14:10:17;-2.90;99.90
3488;DHT22;38546;48.170;11.724;2022-12-18T14:13:09;-3.00;99.90
3488;DHT22;38546;48.170;11.724;2022-12-18T14:16:02;-3.10;99.90
3488;DHT22;38546;48.170;11.724;2022-12-18T14:18:56;-3.10;99.90
3488;DHT22;38546;48.170;11.724;2022-12-18T14:21:48;-3.10;99.90
3488;DHT22;38546;48.170;11.724;2022-12-18T14:24:39;-3.20;99.90
3488;DHT22;38546;48.170;11.724;2022-12-18T14:27:28;-3.20;99.90
3488;DHT22;38546;48.170;11.724;2022-12-18T14:30:30;-3.30;99.90
3488;DHT22;38546;48.170;11.724;2022-12-18T14:33:30;-3.40;99.90
3488;DHT22;38546;48.170;11.724;2022-12-18T14:36:30;-3.50;99.90
3488;DHT22;38546;48.170;11.724;2022-12-18T14:39:19;-3.50;99.90
3488;DHT22;38546;48.170;11.724;2022-12-18T14:42:11;-3.60;99.90
3488;DHT22;38546;48.170;11.724;2022-12-18T14:50:12;-3.60;99.90
3488;DHT22;38546;48.170;11.724;2022-12-18T14:53:03;-3.70;99.90
3488;DHT22;38546;48.170;11.724;2022-12-18T14:55:53;-3.70;99.90
3488;DHT22;38546;48.170;11.724;2022-12-18T14:58:51;-3.70;99.90
3488;DHT22;38546;48.170;11.724;2022-12-18T15:02:03;-3.70;99.90
3488;DHT22;38546;48.170;11.724;2022-12-18T15:05:49;-3.80;99.90
3488;DHT22;38546;48.170;11.724;2022-12-18T15:08:39;-3.80;99.90
3488;DHT22;38546;48.170;11.724;2022-12-18T15:11:43;-3.80;99.90
3488;DHT22;38546;48.170;11.724;2022-12-18T15:14:43;-3.90;99.90
3488;DHT22;38546;48.170;11.724;2022-12-18T15:17:32;-3.90;99.90
3488;DHT22;38546;48.170;11.724;2022-12-18T15:20:22;-3.90;99.90
3488;DHT22;38546;48.170;11.724;2022-12-18T15:23:23;-3.90;99.90
3488;DHT22;38546;48.170;11.724;2022-12-18T15:26:16;-3.90;99.90
3488;DHT22;38546;48.170;11.724;2022-12-18T15:29:20;-3.90;99.90
3488;DHT22;38546;48.170;11.724;2022-12-18T15:32:19;-3.90;99.90
3488;DHT22;38546;48.170;11.724;2022-12-18T15:35:21;-4.00;99.90
3488;DHT22;38546;48.170;11.724;2022-12-18T15:38:11;-4.00;99.90
3488;DHT22;38546;48.170;11.724;2022-12-18T15:41:00;-4.00;99.90
3488;DHT22;38546;48.170;11.724;2022-12-18T15:43:52;-4.00;99.90
3488;DHT22;38546;48.170;11.724;2022-12-18T15:46:42;-4.10;99.90
3488;DHT22;38546;48.170;11.724;2022-12-18T15:49:31;-4.10;99.90
3488;DHT22;38546;48.170;11.724;2022-12-18T15:52:20;-4.10;99.90
3488;DHT22;38546;48.170;11.724;2022-12-18T15:55:17;-4.10;99.90
3488;DHT22;38546;48.170;11.724;2022-12-18T15:58:26;-4.10;99.90
3488;DHT22;38546;48.170;11.724;2022-12-18T16:01:16;-4.00;99.90
3488;DHT22;38546;48.170;11.724;2022-12-18T16:04:14;-4.00;99.90
3488;DHT22;38546;48.170;11.724;2022-12-18T16:07:05;-4.10;99.90
3488;DHT22;38546;48.170;11.724;2022-12-18T16:09:54;-4.00;99.90
3488;DHT22;38546;48.170;11.724;2022-12-18T16:12:43;-4.00;99.90
3488;DHT22;38546;48.170;11.724;2022-12-18T16:15:32;-4.00;99.90
3488;DHT22;38546;48.170;11.724;2022-12-18T16:18:21;-4.00;99.90
3488;DHT22;38546;48.170;11.724;2022-12-18T16:21:11;-4.00;99.90
3488;DHT22;38546;48.170;11.724;2022-12-18T16:24:01;-4.10;99.90
3488;DHT22;38546;48.170;11.724;2022-12-18T16:26:51;-4.10;99.90
3488;DHT22;38546;48.170;11.724;2022-12-18T16:29:41;-4.10;99.90
3488;DHT22;38546;48.170;11.724;2022-12-18T16:32:31;-4.10;99.90
3488;DHT22;38546;48.170;11.724;2022-12-18T16:35:23;-4.10;99.90
3488;DHT22;38546;48.170;11.724;2022-12-18T16:38:12;-4.20;99.90
3488;DHT22;38546;48.170;11.724;2022-12-18T16:41:01;-4.20;99.90
3488;DHT22;38546;48.170;11.724;2022-12-18T16:44:09;-4.20;99.90
3488;DHT22;38546;48.170;11.724;2022-12-18T16:46:58;-4.20;99.90
3488;DHT22;38546;48.170;11.724;2022-12-18T16:49:50;-4.20;99.90
3488;DHT22;38546;48.170;11.724;2022-12-18T16:52:40;-4.30;99.90
3488;DHT22;38546;48.170;11.724;2022-12-18T16:55:30;-4.30;99.90
3488;DHT22;38546;48.170;11.724;2022-12-18T16:58:19;-4.40;99.90
3488;DHT22;38546;48.170;11.724;2022-12-18T17:01:10;-4.40;99.90
3488;DHT22;38546;48.170;11.724;2022-12-18T17:04:02;-4.40;99.90
3488;DHT22;38546;48.170;11.724;2022-12-18T17:06:52;-4.40;99.90
3488;DHT22;38546;48.170;11.724;2022-12-18T17:09:42;-4.40;99.90
3488;DHT22;38546;48.170;11.724;2022-12-18T17:12:31;-4.40;99.90
3488;DHT22;38546;48.170;11.724;2022-12-18T17:15:20;-4.40;99.90
3488;DHT22;38546;48.170;11.724;2022-12-18T17:18:10;-4.50;99.90
3488;DHT22;38546;48.170;11.724;2022-12-18T17:21:04;-4.60;99.90
3488;DHT22;38546;48.170;11.724;2022-12-18T17:23:59;-4.60;99.90
3488;DHT22;38546;48.170;11.724;2022-12-18T17:26:49;-4.60;99.90
3488;DHT22;38546;48.170;11.724;2022-12-18T17:29:39;-4.60;99.90
3488;DHT22;38546;48.170;11.724;2022-12-18T17:32:29;-4.60;99.90
3488;DHT22;38546;48.170;11.724;2022-12-18T17:35:18;-4.60;99.90
3488;DHT22;38546;48.170;11.724;2022-12-18T17:38:07;-4.60;99.90
3488;DHT22;38546;48.170;11.724;2022-12-18T17:41:01;-4.60;99.90
3488;DHT22;38546;48.170;11.724;2022-12-18T17:43:52;-4.60;99.90
3488;DHT22;38546;48.170;11.724;2022-12-18T17:46:42;-4.60;99.90
3488;DHT22;38546;48.170;11.724;2022-12-18T17:49:31;-4.60;99.90
3488;DHT22;38546;48.170;11.724;2022-12-18T17:52:20;-4.60;99.90
3488;DHT22;38546;48.170;11.724;2022-12-18T17:55:09;-4.60;99.90
3488;DHT22;38546;48.170;11.724;2022-12-18T17:57:58;-4.60;99.90
3488;DHT22;38546;48.170;11.724;2022-12-18T18:00:48;-4.70;99.90
3488;DHT22;38546;48.170;11.724;2022-12-18T18:03:38;-4.60;99.90
3488;DHT22;38546;48.170;11.724;2022-12-18T18:06:27;-4.70;99.90
3488;DHT22;38546;48.170;11.724;2022-12-18T18:09:17;-4.60;99.90
3488;DHT22;38546;48.170;11.724;2022-12-18T18:12:07;-4.60;99.90
3488;DHT22;38546;48.170;11.724;2022-12-18T18:15:15;-4.70;99.90
3488;DHT22;38546;48.170;11.724;2022-12-18T18:18:05;-4.70;99.90
3488;DHT22;38546;48.170;11.724;2022-12-18T18:20:55;-4.70;99.90
3488;DHT22;38546;48.170;11.724;2022-12-18T18:23:44;-4.70;99.90
3488;DHT22;38546;48.170;11.724;2022-12-18T18:26:34;-4.80;99.90
3488;DHT22;38546;48.170;11.724;2022-12-18T18:29:25;-4.70;99.90
3488;DHT22;38546;48.170;11.724;2022-12-18T18:32:15;-4.70;99.90
3488;DHT22;38546;48.170;11.724;2022-12-18T18:35:05;-4.70;99.90
3488;DHT22;38546;48.170;11.724;2022-12-18T18:37:55;-4.70;99.90
3488;DHT22;38546;48.170;11.724;2022-12-18T18:40:44;-4.70;99.90
3488;DHT22;38546;48.170;11.724;2022-12-18T18:43:34;-4.70;99.90
3488;DHT22;38546;48.170;11.724;2022-12-18T18:46:23;-4.70;99.90
3488;DHT22;38546;48.170;11.724;2022-12-18T18:49:13;-4.70;99.90
3488;DHT22;38546;48.170;11.724;2022-12-18T18:52:03;-4.80;99.90
3488;DHT22;38546;48.170;11.724;2022-12-18T18:54:54;-4.80;99.90
3488;DHT22;38546;48.170;11.724;2022-12-18T18:57:43;-4.80;99.90
3488;DHT22;38546;48.170;11.724;2022-12-18T19:00:32;-4.80;99.90
3488;DHT22;38546;48.170;11.724;2022-12-18T19:03:21;-4.80;99.90
3488;DHT22;38546;48.170;11.724;2022-12-18T19:06:22;-4.80;99.90
3488;DHT22;38546;48.170;11.724;2022-12-18T19:09:12;-4.80;99.90
3488;DHT22;38546;48.170;11.724;2022-12-18T19:12:03;-4.80;99.90
3488;DHT22;38546;48.170;11.724;2022-12-18T19:15:10;-4.80;99.90
3488;DHT22;38546;48.170;11.724;2022-12-18T19:17:59;-4.70;99.90
3488;DHT22;38546;48.170;11.724;2022-12-18T19:21:01;-4.80;99.90
3488;DHT22;38546;48.170;11.724;2022-12-18T19:23:52;-4.80;99.90